Time;durP1;ratioP1;P1;durP2;ratioP2;P2;SDS_P1;SDS_P2;PMS_P1;PMS_P2;Temp;Humidity;BMP_temperature;BMP_pressure;BME280_temperature;BME280_humidity;BME280_pressure;Samples;Min_cycle;Max_cycle;Signal;HPM_P1;HPM_P2
2022/09/02 00:00:00;;;;;;;7.05;6.55;;;13.60;99.90;;;14.37;82.45;98014.13;5204565;28;20210;-77
2022/09/02 00:02:34;;;;;;;7.80;7.30;;;13.60;99.90;;;14.41;83.26;98015.13;5201978;28;20202;-77
2022/09/02 00:05:08;;;;;;;7.57;6.97;;;13.60;99.90;;;14.41;82.24;98013.44;5203790;28;20228;-77
2022/09/02 00:07:41;;;;;;;7.45;6.95;;;13.50;99.90;;;14.38;82.93;98009.84;5203562;28;20225;-77
2022/09/02 00:10:15;;;;;;;8.60;7.90;;;13.50;99.90;;;14.37;82.84;98008.97;5201103;28;20241;-78
2022/09/02 00:12:48;;;;;;;8.63;7.85;;;13.50;99.90;;;14.26;83.37;98005.03;5202483;28;20289;-77
2022/09/02 00:15:21;;;;;;;7.47;6.88;;;13.40;99.90;;;14.18;84.02;98006.38;5202229;28;20248;-77
2022/09/02 00:17:56;;;;;;;7.85;7.22;;;13.30;99.90;;;14.15;83.66;98001.97;5202127;28;20232;-77
2022/09/02 00:20:31;;;;;;;7.82;7.15;;;13.30;99.90;;;14.25;82.82;97994.69;5201864;28;20205;-77
2022/09/02 00:23:04;;;;;;;6.97;6.50;;;13.30;99.90;;;14.21;84.04;98001.38;5202693;28;20240;-77
2022/09/02 00:25:40;;;;;;;7.47;6.97;;;13.40;99.90;;;14.15;83.79;98001.97;5199875;28;20319;-77
2022/09/02 00:28:15;;;;;;;7.50;6.90;;;13.30;99.90;;;14.07;83.94;97989.59;5203246;28;20224;-77
2022/09/02 00:30:51;;;;;;;7.35;6.75;;;13.20;99.90;;;14.02;84.83;97988.50;5201254;28;20205;-77
2022/09/02 00:33:25;;;;;;;7.32;6.82;;;13.20;99.90;;;14.06;84.10;97987.84;5200659;28;20229;-77
2022/09/02 00:36:00;;;;;;;7.90;7.30;;;13.10;99.90;;;14.02;83.82;97989.41;5202415;28;20283;-77
2022/09/02 00:38:35;;;;;;;8.02;7.45;;;13.10;99.90;;;13.97;84.18;97994.31;5202826;28;20284;-77
2022/09/02 00:41:11;;;;;;;8.63;7.93;;;13.00;99.90;;;13.90;85.29;97988.81;5200861;28;20202;-76
2022/09/02 00:43:47;;;;;;;8.40;7.88;;;13.00;99.90;;;13.82;85.08;97995.28;5202466;28;20549;-77
2022/09/02 00:46:25;;;;;;;8.05;7.43;;;13.00;99.90;;;13.84;84.39;97984.28;5201609;28;20731;-77
2022/09/02 00:49:09;;;;;;;8.65;8.13;;;12.90;99.90;;;13.72;84.65;97984.59;5201480;28;20194;-77
2022/09/02 00:51:48;;;;;;;8.40;7.80;;;12.90;99.90;;;13.64;84.99;97977.34;5200506;28;20680;-77
2022/09/02 00:54:24;;;;;;;8.55;7.97;;;12.80;99.90;;;13.60;85.68;97980.59;5199956;28;20691;-77
2022/09/02 00:56:58;;;;;;;8.70;8.05;;;12.70;99.90;;;13.58;85.59;97970.22;5201542;28;20299;-77
2022/09/02 00:59:46;;;;;;;7.90;7.32;;;12.80;99.90;;;13.57;85.36;97970.16;5203264;28;20199;-77
2022/09/02 01:02:22;;;;;;;7.93;7.43;;;12.80;99.90;;;13.62;85.19;97976.38;5200052;28;20222;-77
2022/09/02 01:04:58;;;;;;;7.97;7.28;;;12.70;99.90;;;13.55;85.58;97976.91;5202969;28;20217;-77
2022/09/02 01:07:35;;;;;;;7.65;7.07;;;12.70;99.90;;;13.49;85.74;97974.94;5201303;28;20263;-76
2022/09/02 01:10:14;;;;;;;8.25;7.55;;;12.60;99.90;;;13.45;85.80;97981.63;5201178;28;20247;-77
2022/09/02 01:12:48;;;;;;;7.38;6.88;;;12.60;99.90;;;13.41;86.07;97984.84;5199839;28;20277;-77
2022/09/02 01:15:22;;;;;;;8.13;7.53;;;12.60;99.90;;;13.20;86.59;97978.66;5201534;28;20966;-77
2022/09/02 01:17:55;;;;;;;7.88;7.38;;;12.50;99.90;;;13.14;87.06;97980.91;5202968;28;20798;-77
2022/09/02 01:20:31;;;;;;;7.38;6.88;;;12.40;99.90;;;13.19;86.30;97982.91;5202520;28;20697;-77
2022/09/02 01:23:06;;;;;;;7.30;6.80;;;12.40;99.90;;;13.23;86.60;97973.66;5202090;28;20229;-77
2022/09/02 01:25:40;;;;;;;7.32;6.72;;;12.40;99.90;;;13.28;86.54;97972.25;5199470;28;20297;-77
2022/09/02 01:28:17;;;;;;;6.97;6.57;;;12.50;99.90;;;13.25;86.35;97980.66;5200530;28;20194;-77
2022/09/02 01:30:54;;;;;;;7.93;7.32;;;12.50;99.90;;;13.25;86.49;97975.53;5202274;28;20260;-77
2022/09/02 01:33:28;;;;;;;6.82;6.43;;;12.40;99.90;;;13.32;86.76;97981.84;5199969;28;20284;-77
2022/09/02 01:36:04;;;;;;;6.43;5.82;;;12.50;99.90;;;13.28;85.75;97975.69;5201216;28;20216;-77
2022/09/02 01:38:39;;;;;;;7.07;6.57;;;12.50;99.90;;;13.26;86.62;97969.59;5192701;28;20292;-77
2022/09/02 01:41:12;;;;;;;7.25;6.72;;;12.40;99.90;;;13.27;86.59;97967.88;5198811;28;20694;-76
2022/09/02 01:43:45;;;;;;;6.85;6.35;;;12.40;99.90;;;13.26;85.78;97973.84;5200680;28;20820;-77
2022/09/02 01:46:19;;;;;;;7.22;6.72;;;12.40;99.90;;;13.19;86.17;97974.28;5200781;28;20283;-76
2022/09/02 01:48:52;;;;;;;7.25;6.55;;;12.40;99.90;;;13.20;86.22;97976.09;5201724;28;20312;-77
2022/09/02 01:51:25;;;;;;;7.70;7.10;;;12.40;99.90;;;13.11;86.32;97967.94;5200500;28;20206;-78
2022/09/02 01:54:00;;;;;;;7.60;7.05;;;12.30;99.90;;;13.06;87.03;97968.56;5200675;28;20206;-77
2022/09/02 01:56:33;;;;;;;7.00;6.50;;;12.30;99.90;;;13.00;86.81;97967.41;5199319;28;20248;-77
2022/09/02 01:59:07;;;;;;;6.95;6.35;;;12.20;99.90;;;13.00;86.83;97957.16;5198660;28;20322;-77
2022/09/02 02:01:40;;;;;;;6.55;6.05;;;12.20;99.90;;;13.05;86.71;97971.97;5199177;28;20598;-77
2022/09/02 02:04:14;;;;;;;7.30;6.80;;;12.20;99.90;;;13.03;86.71;97970.13;5202065;28;20626;-77
2022/09/02 02:06:48;;;;;;;7.65;6.97;;;12.20;99.90;;;13.00;87.08;97967.41;5199276;28;20735;-77
2022/09/02 02:09:27;;;;;;;7.03;6.43;;;12.20;99.90;;;13.04;86.67;97977.00;5198912;28;20677;-76
2022/09/02 02:12:00;;;;;;;6.63;6.07;;;12.30;99.90;;;13.15;86.16;97970.72;5200201;28;20237;-77
2022/09/02 02:14:34;;;;;;;7.38;6.78;;;12.40;99.90;;;13.05;86.05;97964.25;5200526;28;20279;-77
2022/09/02 02:17:07;;;;;;;6.50;5.95;;;12.30;99.90;;;13.08;86.60;97966.09;5201348;28;20267;-77
2022/09/02 02:19:42;;;;;;;6.82;6.32;;;12.30;99.90;;;13.06;86.55;97967.69;5201517;28;20289;-77
2022/09/02 02:22:16;;;;;;;7.22;6.63;;;12.30;99.90;;;13.08;86.34;97966.97;5201251;28;20749;-78
2022/09/02 02:24:50;;;;;;;6.95;6.45;;;12.30;99.90;;;13.04;85.80;97965.03;5200060;28;20244;-77
2022/09/02 02:27:23;;;;;;;6.70;6.30;;;12.20;99.90;;;13.02;86.75;97960.63;5202268;28;20283;-77
2022/09/02 02:29:57;;;;;;;6.70;6.10;;;12.20;99.90;;;12.98;86.54;97969.00;5200452;28;20930;-77
2022/09/02 02:32:31;;;;;;;6.57;5.95;;;12.20;99.90;;;12.99;86.30;97971.66;5197830;28;20260;-77
2022/09/02 02:35:05;;;;;;;6.95;6.35;;;12.20;99.90;;;12.89;86.53;97977.13;5203188;28;20252;-77
2022/09/02 02:37:38;;;;;;;6.45;6.05;;;12.10;99.90;;;12.91;87.06;97972.09;5203374;28;20206;-78
2022/09/02 02:40:13;;;;;;;6.70;6.20;;;12.10;99.90;;;12.91;86.20;97962.72;5200915;28;20221;-77
2022/09/02 02:42:46;;;;;;;7.43;6.93;;;12.00;99.90;;;12.84;86.65;97969.19;5204300;28;20208;-78
2022/09/02 02:45:20;;;;;;;7.38;6.75;;;12.00;99.90;;;12.69;86.77;97970.13;5204961;28;20788;-76
2022/09/02 02:47:54;;;;;;;7.05;6.55;;;11.90;99.90;;;12.64;86.53;97967.31;5203453;28;20233;-78
2022/09/02 02:50:27;;;;;;;6.22;5.82;;;11.80;99.90;;;12.60;87.19;97966.28;5201894;28;20614;-77
2022/09/02 02:53:01;;;;;;;7.07;6.47;;;11.80;99.90;;;12.61;87.02;97960.34;5201679;28;20233;-77
2022/09/02 02:55:35;;;;;;;5.93;5.35;;;11.80;99.90;;;12.62;87.32;97972.38;5201689;28;20292;-77
2022/09/02 02:58:09;;;;;;;6.38;5.88;;;11.80;99.90;;;12.59;87.21;97959.41;5203952;28;20284;-78
2022/09/02 03:00:48;;;;;;;6.80;6.15;;;11.70;99.90;;;12.57;87.05;97961.00;5205572;28;20225;-77
2022/09/02 03:03:21;;;;;;;7.30;6.55;;;11.70;99.90;;;12.49;87.38;97957.16;5205894;28;20236;-77
2022/09/02 03:05:54;;;;;;;6.70;6.20;;;11.70;99.90;;;12.42;87.90;97960.25;5205904;28;20320;-77
2022/09/02 03:08:28;;;;;;;6.63;6.22;;;11.60;99.90;;;12.39;88.30;97960.09;5202189;28;20222;-78
2022/09/02 03:11:02;;;;;;;6.07;5.72;;;11.60;99.90;;;12.39;87.98;97954.97;5199966;28;20249;-77
2022/09/02 03:13:36;;;;;;;6.03;5.57;;;11.60;99.90;;;12.38;87.59;97948.03;5199434;28;20233;-77
2022/09/02 03:16:10;;;;;;;5.90;5.60;;;11.50;99.90;;;12.41;87.60;97955.91;5203888;28;20257;-76
2022/09/02 03:18:43;;;;;;;6.10;5.60;;;11.60;99.90;;;12.42;87.33;97950.00;5201144;28;20208;-76
2022/09/02 03:21:17;;;;;;;6.07;5.68;;;11.60;99.90;;;12.39;87.34;97954.97;5200249;28;20229;-76
2022/09/02 03:23:50;;;;;;;6.00;5.60;;;11.50;99.90;;;12.35;86.82;97959.03;5199705;28;20201;-77
2022/09/02 03:26:26;;;;;;;5.65;5.15;;;11.50;99.90;;;12.29;87.30;97953.59;5197659;28;20253;-77
2022/09/02 03:28:59;;;;;;;5.80;5.40;;;11.50;99.90;;;12.27;87.73;97954.31;5200160;28;20225;-77
2022/09/02 03:31:32;;;;;;;6.07;5.68;;;11.50;99.90;;;12.32;87.38;97958.00;5200258;28;20210;-76
2022/09/02 03:34:05;;;;;;;6.25;5.75;;;11.50;99.90;;;12.33;87.13;97963.22;5200024;28;20644;-77
2022/09/02 03:36:42;;;;;;;6.10;5.70;;;11.50;99.90;;;12.28;86.64;97956.97;5199280;28;20248;-77
2022/09/02 03:39:16;;;;;;;6.03;5.63;;;11.40;99.90;;;12.21;86.97;97960.00;5203382;28;20197;-77
2022/09/02 03:41:52;;;;;;;6.22;5.78;;;11.30;99.90;;;12.06;87.55;97954.06;5198754;28;20210;-77
2022/09/02 03:44:25;;;;;;;6.32;5.80;;;11.20;99.90;;;12.08;87.50;97948.22;5200205;28;20263;-76
2022/09/02 03:46:58;;;;;;;5.70;5.40;;;11.20;99.90;;;12.14;87.73;97956.22;5202925;28;20249;-77
2022/09/02 03:49:31;;;;;;;5.97;5.57;;;11.30;99.90;;;12.17;87.53;97955.53;5204049;28;20657;-77
2022/09/02 03:52:05;;;;;;;6.10;5.60;;;11.30;99.90;;;12.11;87.86;97958.63;5203081;28;20198;-76
2022/09/02 03:54:38;;;;;;;6.00;5.60;;;11.30;99.90;;;12.10;87.64;97949.19;5204672;28;20647;-77
2022/09/02 03:57:13;;;;;;;5.38;4.90;;;11.30;99.90;;;12.09;87.79;97949.97;5205060;28;20226;-77
2022/09/02 03:59:46;;;;;;;6.20;5.70;;;11.30;99.90;;;12.02;87.91;97947.91;5204221;28;20225;-77
2022/09/02 04:02:19;;;;;;;5.75;5.28;;;11.20;99.90;;;12.04;87.73;97945.41;5202586;28;20202;-77
2022/09/02 04:04:53;;;;;;;5.65;5.18;;;11.20;99.90;;;12.00;87.62;97954.63;5200402;28;20257;-76
2022/09/02 04:07:26;;;;;;;5.60;5.20;;;11.20;99.90;;;12.01;87.50;97946.13;5199112;28;20253;-77
2022/09/02 04:09:59;;;;;;;5.28;4.93;;;11.20;99.90;;;12.04;87.15;97946.28;5198094;28;20234;-77
2022/09/02 04:12:34;;;;;;;5.25;4.85;;;11.20;99.90;;;12.03;87.05;97949.66;5201614;28;20305;-77
2022/09/02 04:15:10;;;;;;;5.70;5.32;;;11.20;99.90;;;12.00;87.47;97946.94;5202101;28;20213;-76
2022/09/02 04:17:43;;;;;;;5.28;4.95;;;11.20;99.90;;;11.99;86.96;97941.72;5200291;28;20280;-77
2022/09/02 04:20:16;;;;;;;5.65;5.25;;;11.20;99.90;;;12.04;86.90;97935.16;5203043;28;20202;-77
2022/09/02 04:22:49;;;;;;;5.43;5.10;;;11.10;99.90;;;11.94;86.79;97937.25;5199657;28;20228;-77
2022/09/02 04:25:23;;;;;;;5.63;5.28;;;11.10;99.90;;;11.89;87.51;97937.81;5201207;28;20678;-77
2022/09/02 04:28:01;;;;;;;5.78;5.47;;;11.10;99.90;;;11.83;87.71;97940.88;5199562;28;20283;-77
2022/09/02 04:30:34;;;;;;;6.30;5.40;;;11.00;99.90;;;11.82;87.51;97946.81;5198707;28;20246;-77
2022/09/02 04:33:07;;;;;;;6.63;6.05;;;11.00;99.90;;;11.71;87.86;97941.13;5202740;28;20229;-77
2022/09/02 04:35:41;;;;;;;5.65;5.28;;;10.90;99.90;;;11.68;88.40;97946.06;5197053;28;20225;-76
2022/09/02 04:38:15;;;;;;;5.43;5.03;;;10.90;99.90;;;11.68;88.00;97935.84;5199541;28;20213;-76
2022/09/02 04:40:48;;;;;;;5.97;5.50;;;10.90;99.90;;;11.72;87.91;97942.00;5201300;28;20292;-77
2022/09/02 04:43:23;;;;;;;5.85;5.40;;;10.90;99.90;;;11.72;88.25;97939.44;5200909;28;20582;-77
2022/09/02 04:45:56;;;;;;;5.78;5.28;;;10.90;99.90;;;11.73;87.82;97948.88;5200696;28;21535;-77
2022/09/02 04:48:29;;;;;;;5.20;4.85;;;10.90;99.90;;;11.73;87.70;97944.66;5200741;28;20280;-77
2022/09/02 04:51:08;;;;;;;4.97;4.65;;;10.90;99.90;;;11.76;88.03;97940.47;5200565;28;20237;-77
2022/09/02 04:53:42;;;;;;;5.40;4.93;;;10.90;99.90;;;11.76;87.82;97941.38;5200819;28;20291;-76
2022/09/02 04:56:19;;;;;;;6.53;5.85;;;10.90;99.90;;;11.77;87.85;97939.69;5201188;28;20247;-77
2022/09/02 04:58:55;;;;;;;5.05;4.75;;;10.90;99.90;;;11.76;88.05;97940.47;5200588;28;20285;-77
2022/09/02 05:01:32;;;;;;;5.53;4.63;;;10.90;99.90;;;11.78;87.17;97936.31;5200957;28;20225;-77
2022/09/02 05:04:08;;;;;;;5.70;5.25;;;10.90;99.90;;;11.73;87.06;97941.19;5201456;28;20202;-76
2022/09/02 05:06:41;;;;;;;5.13;4.72;;;10.90;99.90;;;11.70;87.04;97948.69;5200851;28;20225;-77
2022/09/02 05:09:17;;;;;;;5.50;5.03;;;10.90;99.90;;;11.70;86.54;97952.16;5200722;28;20224;-76
2022/09/02 05:11:50;;;;;;;5.53;5.13;;;10.80;99.90;;;11.68;87.54;97951.19;5199961;28;20276;-77
2022/09/02 05:14:26;;;;;;;6.40;5.95;;;10.80;99.90;;;11.63;87.78;97942.38;5201950;28;20287;-77
2022/09/02 05:17:01;;;;;;;6.18;5.68;;;10.90;99.90;;;11.70;87.60;97944.50;5200553;28;20677;-77
2022/09/02 05:19:39;;;;;;;6.15;5.75;;;10.90;99.90;;;11.80;87.35;97947.53;5196242;28;20216;-77
2022/09/02 05:22:13;;;;;;;5.78;5.38;;;11.00;99.90;;;11.86;87.28;97955.56;5200291;28;20691;-77
2022/09/02 05:24:47;;;;;;;6.47;5.97;;;11.00;99.90;;;11.90;87.52;97955.84;5199234;28;20268;-77
2022/09/02 05:27:20;;;;;;;5.72;5.22;;;11.10;99.90;;;12.00;87.26;97951.19;5201529;28;20676;-76
2022/09/02 05:29:58;;;;;;;6.63;6.13;;;11.10;99.90;;;12.02;87.22;97955.59;5201408;28;20201;-77
2022/09/02 05:32:31;;;;;;;5.18;4.78;;;11.20;99.90;;;12.13;86.71;97946.78;5196918;28;20201;-77
2022/09/02 05:35:09;;;;;;;5.70;5.30;;;11.30;99.90;;;12.22;86.43;97945.50;5197067;28;20267;-76
2022/09/02 05:37:43;;;;;;;6.22;5.72;;;11.40;99.90;;;12.32;86.25;97950.31;5200322;28;20225;-76
2022/09/02 05:40:16;;;;;;;5.07;4.70;;;11.50;99.90;;;12.47;85.24;97947.63;5199165;28;20234;-77
2022/09/02 05:42:54;;;;;;;4.72;4.40;;;11.60;99.90;;;12.83;84.01;97948.63;5201257;28;20202;-77
2022/09/02 05:45:29;;;;;;;4.93;4.43;;;11.80;99.90;;;13.17;82.70;97945.13;5197337;28;20226;-76
2022/09/02 05:49:04;;;;;;;4.85;4.55;;;12.10;99.90;;;13.52;80.96;97951.97;5199135;28;20252;-76
2022/09/02 05:50:56;;;;;;;5.47;5.07;;;12.20;99.90;;;13.98;79.29;97951.50;5200073;28;20252;-76
2022/09/02 05:53:30;;;;;;;5.70;5.20;;;12.60;99.90;;;14.35;77.40;97938.59;5201687;28;20216;-76
2022/09/02 05:56:05;;;;;;;5.20;4.85;;;12.90;99.90;;;14.73;76.52;97941.06;5200940;28;20306;-77
2022/09/02 05:58:38;;;;;;;5.57;5.07;;;13.20;99.90;;;15.21;74.15;97942.22;5200734;28;20271;-77
2022/09/02 06:01:16;;;;;;;5.18;4.68;;;13.70;99.90;;;15.83;71.72;97940.38;5201968;28;20727;-76
2022/09/02 06:03:51;;;;;;;4.65;4.25;;;14.50;99.90;;;16.20;70.02;97932.28;5199049;28;20309;-77
2022/09/02 06:06:24;;;;;;;4.82;4.35;;;14.90;99.90;;;16.64;68.00;97935.53;5201104;28;20264;-77
2022/09/02 06:08:58;;;;;;;6.18;4.43;;;15.30;99.90;;;16.81;66.39;97930.97;5200459;28;20257;-76
2022/09/02 06:11:31;;;;;;;4.25;3.95;;;15.30;99.90;;;17.07;66.84;97926.69;5196312;28;20235;-76
2022/09/02 06:14:06;;;;;;;4.70;4.30;;;15.40;99.90;;;17.74;64.98;97935.69;5202332;28;20259;-77
2022/09/02 06:16:41;;;;;;;4.00;3.70;;;15.90;99.90;;;18.19;62.93;97927.50;5203331;28;20635;-76
2022/09/02 06:19:15;;;;;;;4.35;4.05;;;16.20;99.90;;;18.48;61.67;97930.03;5201789;28;20308;-77
2022/09/02 06:21:53;;;;;;;5.95;3.92;;;16.60;99.90;;;18.64;60.40;97926.16;5200831;28;20205;-78
2022/09/02 06:24:28;;;;;;;4.07;3.60;;;16.70;99.90;;;18.46;61.24;97932.59;5201686;28;20212;-76
2022/09/02 06:27:02;;;;;;;4.30;4.00;;;16.60;99.90;;;18.99;60.33;97934.84;5201139;28;20221;-77
2022/09/02 06:29:36;;;;;;;4.57;4.07;;;16.90;99.90;;;19.38;58.16;97923.69;5202689;28;20308;-75
2022/09/02 06:32:11;;;;;;;4.13;3.83;;;17.20;99.90;;;19.67;57.47;97919.19;5200083;28;20210;-77
2022/09/02 06:34:44;;;;;;;4.13;3.83;;;17.60;99.90;;;20.27;56.07;97927.38;5202115;28;20255;-77
2022/09/02 06:37:17;;;;;;;4.20;3.80;;;18.10;99.90;;;20.35;55.80;97928.41;5200241;28;20283;-77
2022/09/02 06:39:50;;;;;;;4.53;4.03;;;18.40;99.90;;;20.60;53.95;97922.88;5199249;28;20222;-76
2022/09/02 06:42:24;;;;;;;3.85;3.55;;;18.60;99.90;;;20.86;54.12;97923.31;5196662;28;20213;-77
2022/09/02 06:44:57;;;;;;;3.92;3.72;;;18.70;99.90;;;20.56;54.60;97923.63;5199355;28;20295;-77
2022/09/02 06:47:32;;;;;;;4.45;3.42;;;18.50;99.90;;;20.85;54.25;97916.34;5199867;28;20279;-77
2022/09/02 06:50:06;;;;;;;4.13;3.72;;;18.80;99.90;;;21.24;53.26;97923.06;5205368;28;20253;-77
2022/09/02 06:52:39;;;;;;;4.07;3.78;;;19.00;99.70;;;21.51;52.00;97920.03;5205690;28;20197;-76
2022/09/02 06:55:15;;;;;;;4.07;3.78;;;19.30;98.90;;;21.31;52.66;97922.31;5200926;28;20275;-76
2022/09/02 06:57:48;;;;;;;3.92;3.60;;;19.20;99.10;;;21.64;52.62;97925.44;5196627;28;20229;-78
2022/09/02 07:00:21;;;;;;;3.90;3.50;;;19.60;98.90;;;21.88;50.53;97920.56;5198026;28;20226;-77
2022/09/02 07:05:43;;;;;;;3.88;3.50;;;20.30;97.70;;;22.54;49.19;97917.91;5200688;28;20275;-77
2022/09/02 07:08:16;;;;;;;3.22;2.97;;;20.50;96.20;;;23.11;48.45;97917.59;5201028;28;20702;-77
2022/09/02 07:10:49;;;;;;;4.78;3.70;;;20.80;96.00;;;23.28;47.49;97914.28;5198738;28;20206;-77
2022/09/02 07:13:22;;;;;;;3.42;3.22;;;20.90;95.50;;;23.68;46.73;97917.16;5199712;28;20272;-77
2022/09/02 07:15:56;;;;;;;3.38;3.08;;;21.20;95.10;;;24.07;44.40;97916.53;5197902;28;20232;-76
2022/09/02 07:18:30;;;;;;;3.30;3.00;;;21.60;93.50;;;24.20;44.14;97913.06;5200525;28;20241;-76
2022/09/02 07:21:03;;;;;;;3.40;2.70;;;21.70;93.20;;;23.94;45.48;97910.34;5193603;28;20201;-77
2022/09/02 07:23:37;;;;;;;2.92;2.70;;;21.20;94.00;;;24.11;44.19;97905.22;5195702;28;20206;-77
2022/09/02 07:26:13;;;;;;;3.42;3.10;;;21.40;93.40;;;24.14;44.80;97899.13;5196997;28;20217;-77
2022/09/02 07:28:47;;;;;;;3.00;2.75;;;21.50;93.60;;;24.40;43.56;97901.81;5200162;28;20321;-78
2022/09/02 07:31:22;;;;;;;2.88;2.70;;;22.20;92.20;;;24.30;44.42;97900.06;5196454;28;20230;-79
2022/09/02 07:33:57;;;;;;;2.70;2.50;;;22.30;92.10;;;24.05;46.06;97899.97;5196822;28;20665;-77
2022/09/02 07:36:31;;;;;;;2.90;2.63;;;22.30;92.90;;;23.67;45.87;97890.19;5196903;28;20612;-78
2022/09/02 07:39:06;;;;;;;2.58;2.38;;;22.20;92.10;;;24.10;45.32;97892.16;5195200;28;20240;-77
2022/09/02 07:41:41;;;;;;;3.03;2.72;;;22.70;91.40;;;24.19;45.14;97893.06;5201021;28;20273;-78
2022/09/02 07:44:16;;;;;;;3.20;2.70;;;22.90;90.90;;;23.98;45.62;97887.72;5193759;28;20197;-79
2022/09/02 07:46:49;;;;;;;2.45;2.22;;;22.80;91.20;;;23.99;44.84;97884.28;5200127;28;20225;-77
2022/09/02 07:49:24;;;;;;;3.80;2.42;;;22.90;90.70;;;23.61;44.61;97892.75;5200991;28;20257;-77
2022/09/02 07:51:57;;;;;;;3.97;2.90;;;22.50;89.80;;;22.84;46.61;97886.06;5203532;28;20232;-76
2022/09/02 07:54:30;;;;;;;2.78;2.58;;;21.80;91.20;;;22.86;45.15;97890.44;5200885;28;20625;-76
2022/09/02 07:57:04;;;;;;;2.38;2.22;;;22.20;89.20;;;23.02;45.77;97886.25;5200512;28;20229;-77
2022/09/02 07:59:37;;;;;;;2.72;2.28;;;22.00;90.50;;;23.53;45.76;97884.00;5199361;28;20229;-77
2022/09/02 08:02:10;;;;;;;3.33;2.30;;;22.70;90.40;;;23.58;44.65;97885.78;5196254;28;20236;-77
2022/09/02 08:04:45;;;;;;;2.80;2.20;;;23.00;88.40;;;22.98;44.27;97878.38;5198550;28;20225;-78
2022/09/02 08:07:22;;;;;;;2.22;2.13;;;22.40;86.90;;;23.03;44.56;97877.56;5200573;28;20193;-78
2022/09/02 08:09:57;;;;;;;2.63;2.05;;;22.30;88.00;;;22.82;45.29;97883.44;5199456;28;20229;-77
2022/09/02 08:12:30;;;;;;;2.28;2.08;;;22.20;88.30;;;23.18;44.43;97887.25;5199088;28;20228;-78
2022/09/02 08:15:05;;;;;;;2.25;2.05;;;22.50;87.70;;;23.10;45.38;97881.09;5200606;28;20845;-79
2022/09/02 08:17:39;;;;;;;2.13;1.92;;;22.40;88.30;;;23.32;44.38;97875.19;5198407;28;20229;-78
2022/09/02 08:20:15;;;;;;;2.65;1.95;;;22.80;87.00;;;23.31;43.69;97881.25;5196606;28;20198;-77
2022/09/02 08:22:48;;;;;;;2.53;2.20;;;22.80;85.50;;;23.49;43.94;97880.47;5199523;28;20722;-78
2022/09/02 08:25:37;;;;;;;3.30;2.22;;;23.00;85.90;;;23.48;43.93;97875.28;5204562;28;20230;-78
2022/09/02 08:28:11;;;;;;;2.10;1.98;;;23.10;85.30;;;23.75;43.34;97867.63;5200693;28;20285;-78
2022/09/02 08:30:44;;;;;;;2.33;2.13;;;23.60;83.90;;;23.74;42.91;97871.09;5203276;28;20222;-78
2022/09/02 08:33:17;;;;;;;3.95;2.47;;;23.70;82.40;;;23.22;42.50;97873.38;5207144;28;20210;-78
2022/09/02 08:35:52;;;;;;;2.00;1.88;;;23.10;81.80;;;23.57;43.41;97865.75;5201553;28;20272;-78
2022/09/02 08:38:26;;;;;;;3.17;1.75;;;23.10;84.80;;;23.65;42.02;97876.25;5204221;28;20442;-77
2022/09/02 08:41:00;;;;;;;2.50;1.77;;;23.20;82.30;;;23.69;42.40;97870.16;5201741;28;20307;-79
2022/09/02 08:43:38;;;;;;;2.13;1.92;;;23.20;83.50;;;23.72;40.51;97880.69;5204014;28;20517;-77
2022/09/02 08:46:16;;;;;;;2.60;1.80;;;23.50;80.60;;;23.74;39.81;97871.09;5204531;28;20271;-76
2022/09/02 08:48:55;;;;;;;2.13;1.83;;;23.30;78.70;;;23.85;39.95;97868.53;5198364;28;20248;-76
2022/09/02 08:51:35;;;;;;;1.73;1.63;;;23.60;79.00;;;23.78;39.90;97858.94;5202257;28;20288;-76
2022/09/02 08:54:20;;;;;;;2.00;1.75;;;23.50;77.90;;;23.69;40.06;97870.16;5199559;28;20301;-76
2022/09/02 08:56:53;;;;;;;2.03;1.92;;;23.50;78.10;;;23.90;39.11;97861.59;5202574;28;20625;-76
2022/09/02 08:59:30;;;;;;;2.22;1.55;;;23.60;76.60;;;23.84;38.57;97864.19;5202611;28;20225;-77
2022/09/02 09:02:13;;;;;;;2.55;1.77;;;23.80;75.50;;;23.72;39.70;97858.91;5203386;28;20901;-77
2022/09/02 09:05:17;;;;;;;2.58;2.00;;;23.40;77.80;;;23.92;40.69;97861.59;5201249;28;20225;-77
2022/09/02 09:08:09;;;;;;;2.00;1.85;;;23.50;79.60;;;24.13;40.43;97866.91;5201344;28;20206;-77
2022/09/02 09:10:57;;;;;;;2.15;1.80;;;23.80;78.80;;;24.38;38.52;97859.13;5198426;28;20261;-78
2022/09/02 09:13:50;;;;;;;1.88;1.77;;;24.00;76.40;;;24.23;38.41;97862.59;5201674;28;20202;-76
2022/09/02 09:16:43;;;;;;;2.05;1.80;;;23.90;76.00;;;23.60;38.88;97860.53;5196897;28;20654;-76
2022/09/02 09:19:23;;;;;;;1.80;1.70;;;23.20;75.90;;;23.41;38.33;97855.22;5202534;28;20280;-76
2022/09/02 09:22:02;;;;;;;2.08;1.98;;;23.10;74.80;;;22.96;38.81;97851.44;5196780;28;20256;-76
2022/09/02 09:24:40;;;;;;;2.30;2.03;;;22.80;75.30;;;23.38;39.51;97854.34;5197952;28;20210;-78
2022/09/02 09:27:16;;;;;;;1.92;1.67;;;23.10;76.90;;;23.36;38.44;97848.25;5201343;28;20743;-77
2022/09/02 09:29:51;;;;;;;2.00;1.80;;;23.20;75.00;;;23.46;38.24;97856.13;5197586;28;20308;-77
2022/09/02 09:32:29;;;;;;;2.55;1.88;;;23.40;74.60;;;23.43;38.26;97843.06;5202213;28;20243;-77
2022/09/02 09:35:07;;;;;;;2.22;1.88;;;23.20;74.30;;;23.75;37.48;97849.38;5201292;28;20276;-77
2022/09/02 09:37:43;;;;;;;1.98;1.70;;;23.40;73.40;;;23.60;37.92;97851.84;5202444;28;20284;-77
2022/09/02 09:40:29;;;;;;;2.35;1.48;;;23.20;74.30;;;23.73;37.32;97830.22;5200175;28;20197;-77
2022/09/02 09:43:14;;;;;;;1.70;1.60;;;23.40;72.80;;;23.79;37.72;97832.84;5199004;28;20715;-77
2022/09/02 09:45:50;;;;;;;3.08;1.77;;;23.50;72.70;;;23.88;36.57;97824.16;5198396;28;20951;-77
2022/09/02 09:48:29;;;;;;;1.80;1.70;;;23.50;72.20;;;23.85;35.97;97833.72;5202157;28;20632;-77
2022/09/02 09:51:15;;;;;;;1.85;1.50;;;23.60;70.60;;;23.89;36.60;97840.69;5200532;28;20257;-77
2022/09/02 09:53:48;;;;;;;2.42;1.70;;;23.50;71.80;;;23.31;35.23;97828.22;5198957;28;20296;-78
2022/09/02 09:56:31;;;;;;;3.33;1.75;;;23.10;69.30;;;23.56;36.35;97829.22;5198821;28;20225;-78
2022/09/02 09:59:48;;;;;;;1.83;1.60;;;23.10;71.20;;;23.76;34.95;97834.56;5200714;28;20732;-79
2022/09/02 10:02:24;;;;;;;1.65;1.55;;;23.50;69.50;;;23.27;35.89;97819.50;5203427;28;20202;-78
2022/09/02 10:05:17;;;;;;;2.33;1.70;;;23.10;69.50;;;23.51;35.88;97812.66;5202827;28;20308;-79
2022/09/02 10:07:55;;;;;;;1.70;1.60;;;23.20;70.30;;;24.00;35.62;97820.72;5199787;28;20229;-77
2022/09/02 10:10:33;;;;;;;1.70;1.60;;;23.70;69.40;;;24.00;34.92;97813.75;5201194;28;20225;-77
2022/09/02 10:13:24;;;;;;;1.77;1.67;;;23.70;68.20;;;24.15;35.41;97815.56;5201778;28;20205;-77
2022/09/02 10:16:18;;;;;;;1.85;1.75;;;24.00;69.30;;;24.18;34.53;97815.56;5202629;28;20240;-77
2022/09/02 10:18:57;;;;;;;2.00;1.90;;;23.90;67.50;;;23.90;34.55;97814.59;5203412;28;20673;-77
2022/09/02 10:21:50;;;;;;;2.10;1.60;;;23.80;67.40;;;23.75;34.82;97817.13;5201649;28;20276;-77
2022/09/02 10:24:44;;;;;;;2.08;1.60;;;23.30;68.50;;;23.71;35.07;97811.03;5195143;28;20225;-77
2022/09/02 10:27:27;;;;;;;2.30;1.35;;;23.30;68.80;;;23.60;34.37;97820.53;5200754;28;20225;-76
2022/09/02 10:30:08;;;;;;;1.73;1.63;;;23.20;67.50;;;23.71;34.63;97815.41;5199670;28;20222;-78
2022/09/02 10:33:06;;;;;;;1.70;1.60;;;23.30;67.70;;;24.00;34.84;97816.38;5198269;28;20209;-78
2022/09/02 10:35:44;;;;;;;1.77;1.67;;;23.70;67.90;;;24.28;33.44;97814.69;5194681;28;20299;-77
2022/09/02 10:38:33;;;;;;;2.17;1.65;;;24.00;66.40;;;24.21;33.61;97806.88;5200337;28;20229;-77
2022/09/02 10:41:31;;;;;;;1.55;1.45;;;23.80;66.00;;;24.01;33.95;97804.22;5199234;28;20240;-78
2022/09/02 10:44:29;;;;;;;1.70;1.58;;;23.80;67.10;;;24.11;33.73;97795.50;5191663;28;20584;-78
2022/09/02 10:47:10;;;;;;;1.70;1.50;;;23.70;66.70;;;24.33;33.25;97808.63;5195699;28;20206;-77
2022/09/02 10:49:58;;;;;;;1.70;1.60;;;23.90;66.80;;;24.23;33.23;97805.97;5198744;28;20230;-78
2022/09/02 10:53:10;;;;;;;1.95;1.45;;;23.90;65.10;;;24.13;33.46;97785.06;5196185;28;21031;-77
2022/09/02 10:55:53;;;;;;;1.67;1.55;;;23.80;65.20;;;24.01;33.93;97793.75;5193796;28;20249;-78
2022/09/02 10:58:45;;;;;;;1.95;1.50;;;23.60;66.00;;;23.92;33.71;97778.94;5200428;28;20225;-77
2022/09/02 11:01:24;;;;;;;1.83;1.73;;;23.40;66.00;;;23.92;34.32;97784.16;5199693;28;20707;-79